WXM80 ListenWXM80 Stop

You find our weather info also at:

UK Metoffice

WeatherCloud

Weather Underground

Northeastern Weather Network

AWEKAS

Citizen Weather Observer Program (CWOP)

HAMweather, WeatherForYou, PWS Weather


Weather Underground History page Text

Daily Summary for July 28, 2017 Units:  English    Metric   Both
« Previous Day
Next Day »
Daily Weekly Monthly Yearly Custom
  High: Low: Average:
Temperature: 86.7 °F 67.4 °F 76.1 °F
Dew Point: 73.5 °F 65.6 °F 69.2 °F
Humidity: 97 % 57 % 81 %
Wind Speed: 3.6 mph 0.0 mph 0.3 mph
Wind Gust: 6.9 mph - -
Wind:- - SE
Pressure: 29.83 in 29.73 in -
Precipitation: 0.00 in    
Historical Graphs
 
 
Tabular Data for July 28, 2017
Time Temperature Dew Point Pressure Wind Wind Speed Wind Gust Humidity Rainfall Rate (Hourly)
00:02 72.6 °F 70.1 °F 29.82 in Calm   3.5 mph 92 % 0.00 in
00:07 72.6 °F 70.1 °F 29.82 in Calm   1.2 mph 92 % 0.00 in
00:12 72.6 °F 70.1 °F 29.82 in Calm   1.2 mph 92 % 0.00 in
00:17 72.6 °F 70.1 °F 29.82 in SW 1.6 mph 1.6 mph 92 % 0.00 in
00:22 72.6 °F 70.1 °F 29.82 in SW 0.8 mph 2.3 mph 92 % 0.00 in
00:27 72.6 °F 70.1 °F 29.82 in Calm     92 % 0.00 in
00:32 72.5 °F 70.0 °F 29.82 in Calm     92 % 0.00 in
00:37 72.6 °F 70.1 °F 29.82 in Calm   2.3 mph 92 % 0.00 in
00:42 72.6 °F 70.1 °F 29.82 in Calm     92 % 0.00 in
00:47 72.5 °F 70.0 °F 29.82 in SW 0.1 mph 1.2 mph 92 % 0.00 in
00:52 72.5 °F 70.0 °F 29.82 in Calm     92 % 0.00 in
00:57 72.5 °F 70.0 °F 29.82 in Calm     92 % 0.00 in
01:02 72.5 °F 70.0 °F 29.82 in SW 0.1 mph   92 % 0.00 in
01:07 72.5 °F 70.0 °F 29.82 in SW 0.7 mph 2.0 mph 92 % 0.00 in
01:12 72.4 °F 69.9 °F 29.82 in Calm   1.2 mph 92 % 0.00 in
01:17 72.4 °F 69.9 °F 29.82 in Calm     92 % 0.00 in
01:22 72.4 °F 69.9 °F 29.82 in Calm     92 % 0.00 in
01:28 72.3 °F 69.8 °F 29.82 in Calm     92 % 0.00 in
01:33 72.2 °F 69.7 °F 29.81 in Calm     92 % 0.00 in
01:38 72.2 °F 69.7 °F 29.82 in Calm     92 % 0.00 in
01:43 72.1 °F 69.6 °F 29.82 in Calm     92 % 0.00 in
01:48 72.1 °F 69.6 °F 29.82 in Calm     92 % 0.00 in
01:53 71.9 °F 69.4 °F 29.81 in Calm     92 % 0.00 in
01:58 71.9 °F 69.4 °F 29.82 in Calm     92 % 0.00 in
02:03 71.7 °F 69.3 °F 29.81 in Calm     92 % 0.00 in
02:08 71.6 °F 69.2 °F 29.81 in Calm     92 % 0.00 in
02:13 71.5 °F 69.1 °F 29.81 in Calm     92 % 0.00 in
02:18 71.4 °F 69.0 °F 29.81 in Calm     92 % 0.00 in
02:23 71.3 °F 68.9 °F 29.81 in Calm     92 % 0.00 in
02:28 71.1 °F 68.7 °F 29.81 in Calm     92 % 0.00 in
02:33 71.0 °F 68.6 °F 29.81 in Calm     92 % 0.00 in
02:38 70.8 °F 68.4 °F 29.81 in Calm     92 % 0.00 in
02:43 70.7 °F 68.3 °F 29.81 in Calm     92 % 0.00 in
02:48 70.6 °F 68.2 °F 29.80 in Calm     92 % 0.00 in
02:53 70.4 °F 68.0 °F 29.81 in Calm     92 % 0.00 in
02:58 70.3 °F 67.9 °F 29.80 in Calm     92 % 0.00 in
03:03 70.2 °F 68.1 °F 29.80 in Calm     93 % 0.00 in
03:08 70.1 °F 68.0 °F 29.80 in Calm     93 % 0.00 in
03:13 70.0 °F 67.9 °F 29.80 in Calm     93 % 0.00 in
03:18 69.9 °F 67.8 °F 29.80 in Calm     93 % 0.00 in
03:23 69.8 °F 67.7 °F 29.80 in Calm     93 % 0.00 in
03:34 69.5 °F 67.4 °F 29.80 in Calm     93 % 0.00 in
03:39 69.4 °F 67.3 °F 29.80 in Calm     93 % 0.00 in
03:44 69.3 °F 67.2 °F 29.80 in Calm     93 % 0.00 in
03:49 69.2 °F 67.1 °F 29.79 in Calm     93 % 0.00 in
03:54 69.1 °F 67.0 °F 29.80 in Calm     93 % 0.00 in
03:59 69.1 °F 67.0 °F 29.79 in Calm     93 % 0.00 in
04:04 69.0 °F 66.9 °F 29.79 in Calm     93 % 0.00 in
04:09 69.0 °F 66.9 °F 29.80 in Calm     93 % 0.00 in
04:19 68.8 °F 67.0 °F 29.80 in Calm     94 % 0.00 in
04:24 68.7 °F 66.9 °F 29.80 in Calm     94 % 0.00 in
04:29 68.6 °F 66.8 °F 29.80 in Calm     94 % 0.00 in
04:34 68.6 °F 66.5 °F 29.80 in Calm     93 % 0.00 in
04:39 68.5 °F 66.4 °F 29.80 in Calm     93 % 0.00 in
04:44 68.4 °F 66.3 °F 29.80 in Calm     93 % 0.00 in
04:49 68.3 °F 66.2 °F 29.80 in Calm     93 % 0.00 in
04:54 68.2 °F 66.4 °F 29.80 in Calm     94 % 0.00 in
04:59 68.1 °F 66.3 °F 29.80 in Calm     94 % 0.00 in
05:04 68.1 °F 66.3 °F 29.80 in Calm     94 % 0.00 in
05:09 68.0 °F 66.2 °F 29.80 in Calm     94 % 0.00 in
05:14 67.9 °F 65.8 °F 29.80 in Calm     93 % 0.00 in
05:19 67.9 °F 66.1 °F 29.81 in Calm     94 % 0.00 in
05:22 67.9 °F 66.1 °F 29.80 in Calm     94 % 0.00 in
05:27 67.8 °F 66.0 °F 29.80 in Calm     94 % 0.00 in
05:32 67.7 °F 65.9 °F 29.80 in Calm     94 % 0.00 in
05:37 67.7 °F 65.9 °F 29.80 in Calm     94 % 0.00 in
05:42 67.6 °F 65.8 °F 29.81 in Calm     94 % 0.00 in
05:47 67.6 °F 65.8 °F 29.81 in Calm     94 % 0.00 in
05:52 67.5 °F 65.7 °F 29.81 in Calm     94 % 0.00 in
05:57 67.5 °F 65.7 °F 29.81 in Calm     94 % 0.00 in
06:02 67.4 °F 65.6 °F 29.81 in Calm     94 % 0.00 in
06:07 67.4 °F 65.6 °F 29.81 in Calm     94 % 0.00 in
06:12 67.4 °F 65.6 °F 29.81 in Calm     94 % 0.00 in
06:17 67.4 °F 65.6 °F 29.81 in Calm     94 % 0.00 in
06:22 67.4 °F 65.6 °F 29.81 in Calm     94 % 0.00 in
06:27 67.4 °F 65.9 °F 29.81 in Calm     95 % 0.00 in
06:32 67.4 °F 65.9 °F 29.81 in Calm     95 % 0.00 in
06:37 67.4 °F 65.9 °F 29.81 in Calm     95 % 0.00 in
06:42 67.6 °F 66.1 °F 29.81 in Calm     95 % 0.00 in
06:47 67.6 °F 66.1 °F 29.81 in NNE 0.3 mph 1.2 mph 95 % 0.00 in
06:57 68.1 °F 66.9 °F 29.81 in NW 0.2 mph 1.2 mph 96 % 0.00 in
07:02 68.5 °F 67.3 °F 29.82 in Calm     96 % 0.00 in
07:07 68.8 °F 67.9 °F 29.82 in NW 0.8 mph 2.3 mph 97 % 0.00 in
07:12 69.2 °F 68.3 °F 29.81 in NNW 1.3 mph 3.5 mph 97 % 0.00 in
07:17 69.5 °F 68.6 °F 29.82 in NNW 1.4 mph 4.0 mph 97 % 0.00 in
07:22 69.7 °F 68.8 °F 29.81 in NE 1.5 mph 4.0 mph 97 % 0.00 in
07:27 69.9 °F 69.0 °F 29.81 in NNE 2.0 mph 2.0 mph 97 % 0.00 in
07:32 70.1 °F 69.2 °F 29.81 in North 0.9 mph 3.0 mph 97 % 0.00 in
07:42 70.5 °F 69.6 °F 29.81 in North 1.2 mph 2.3 mph 97 % 0.00 in
07:52 70.7 °F 69.8 °F 29.81 in NE 0.1 mph 3.5 mph 97 % 0.00 in
07:57 70.8 °F 69.9 °F 29.81 in North 0.9 mph 1.2 mph 97 % 0.00 in
08:02 70.8 °F 69.9 °F 29.82 in North 0.9 mph 3.0 mph 97 % 0.00 in
08:07 70.8 °F 69.9 °F 29.83 in North 0.9 mph 2.0 mph 97 % 0.00 in
08:12 70.8 °F 69.9 °F 29.83 in Calm   1.2 mph 97 % 0.00 in
08:17 70.8 °F 69.9 °F 29.82 in North 0.1 mph 2.3 mph 97 % 0.00 in
08:22 70.8 °F 69.9 °F 29.82 in North 0.7 mph 3.5 mph 97 % 0.00 in
08:27 70.9 °F 70.0 °F 29.82 in North 2.1 mph 3.5 mph 97 % 0.00 in
08:33 71.0 °F 70.1 °F 29.82 in NNE 0.6 mph 3.5 mph 97 % 0.00 in
08:38 71.2 °F 70.3 °F 29.82 in NNE 0.2 mph 1.2 mph 97 % 0.00 in
08:43 71.4 °F 70.5 °F 29.82 in NNE 0.1 mph 1.2 mph 97 % 0.00 in
08:48 71.6 °F 70.4 °F 29.82 in Calm   1.2 mph 96 % 0.00 in
08:53 71.7 °F 70.5 °F 29.82 in NNE 1.1 mph 3.5 mph 96 % 0.00 in
08:58 71.8 °F 70.6 °F 29.82 in Calm     96 % 0.00 in
09:03 72.0 °F 70.8 °F 29.82 in NNE 0.3 mph 2.3 mph 96 % 0.00 in
09:08 72.3 °F 70.8 °F 29.81 in NE 0.1 mph 1.2 mph 95 % 0.00 in
09:13 72.6 °F 70.8 °F 29.81 in Calm   1.2 mph 94 % 0.00 in
09:18 72.9 °F 71.1 °F 29.81 in NE 1.9 mph 3.5 mph 94 % 0.00 in
09:23 73.1 °F 70.6 °F 29.81 in ENE 3.6 mph 6.9 mph 92 % 0.00 in
09:28 73.3 °F 70.5 °F 29.81 in North 2.1 mph 3.5 mph 91 % 0.00 in
09:33 73.5 °F 70.7 °F 29.81 in NE 1.6 mph 3.5 mph 91 % 0.00 in
09:38 73.6 °F 70.8 °F 29.81 in NE 1.1 mph 2.3 mph 91 % 0.00 in
09:43 73.8 °F 71.0 °F 29.81 in WNW 0.2 mph 1.2 mph 91 % 0.00 in
09:48 74.0 °F 70.9 °F 29.81 in NW 1.3 mph 3.5 mph 90 % 0.00 in
09:53 74.2 °F 71.1 °F 29.81 in ENE 2.2 mph 3.5 mph 90 % 0.00 in
09:58 74.6 °F 71.5 °F 29.81 in North 2.1 mph 3.5 mph 90 % 0.00 in
10:03 74.9 °F 71.4 °F 29.81 in NE 1.1 mph 3.5 mph 89 % 0.00 in
10:08 75.4 °F 71.6 °F 29.81 in ENE 0.4 mph 1.2 mph 88 % 0.00 in
10:13 76.0 °F 71.8 °F 29.81 in Calm     87 % 0.00 in
10:23 77.5 °F 72.3 °F 29.81 in NE 1.4 mph 4.6 mph 84 % 0.00 in
10:34 78.5 °F 72.9 °F 29.81 in Calm   1.2 mph 83 % 0.00 in
10:39 78.9 °F 72.6 °F 29.82 in NE 0.8 mph 2.3 mph 81 % 0.00 in
10:44 79.3 °F 72.6 °F 29.82 in NE 0.5 mph 3.5 mph 80 % 0.00 in
10:49 79.6 °F 72.9 °F 29.81 in NE 0.1 mph 1.2 mph 80 % 0.00 in
10:54 80.1 °F 73.0 °F 29.81 in NE 0.8 mph 2.3 mph 79 % 0.00 in
10:59 80.5 °F 73.4 °F 29.81 in Calm   1.2 mph 79 % 0.00 in
11:04 81.0 °F 73.5 °F 29.81 in ENE 0.1 mph 1.2 mph 78 % 0.00 in
11:09 81.4 °F 72.3 °F 29.81 in Calm   1.2 mph 74 % 0.00 in
11:14 81.2 °F 70.9 °F 29.82 in NE 0.6 mph 2.3 mph 71 % 0.00 in
11:19 81.1 °F 71.2 °F 29.82 in NE 1.6 mph 3.5 mph 72 % 0.00 in
11:24 81.2 °F 71.7 °F 29.82 in NE 0.4 mph 1.2 mph 73 % 0.00 in
11:29 81.4 °F 71.5 °F 29.81 in Calm   1.2 mph 72 % 0.00 in
11:34 81.7 °F 72.2 °F 29.82 in NE 0.1 mph 1.0 mph 73 % 0.00 in
11:39 82.0 °F 71.2 °F 29.82 in NE 0.5 mph 1.2 mph 70 % 0.00 in
11:44 82.1 °F 71.3 °F 29.82 in SE 0.7 mph 2.3 mph 70 % 0.00 in
11:46 82.1 °F 71.3 °F 29.82 in ESE 0.9 mph 2.0 mph 70 % 0.00 in
11:51 82.2 °F 71.4 °F 29.82 in WSW 0.2 mph 2.3 mph 70 % 0.00 in
11:56 82.3 °F 70.7 °F 29.82 in NNE 1.2 mph 3.5 mph 68 % 0.00 in
12:01 82.3 °F 72.0 °F 29.81 in SSE 0.1 mph 1.2 mph 71 % 0.00 in
12:06 82.3 °F 71.5 °F 29.81 in ENE 0.2 mph 2.0 mph 70 % 0.00 in
12:12 82.3 °F 71.1 °F 29.81 in ENE 0.1 mph 1.2 mph 69 % 0.00 in
12:17 82.2 °F 71.0 °F 29.82 in ENE 0.1 mph 1.2 mph 69 % 0.00 in
12:20 82.1 °F 70.9 °F 29.81 in ENE 0.1 mph 1.2 mph 69 % 0.00 in
12:25 81.8 °F 70.2 °F 29.81 in NNW 0.2 mph 1.2 mph 68 % 0.00 in
12:30 81.7 °F 70.5 °F 29.81 in Calm   1.2 mph 69 % 0.00 in
12:35 81.6 °F 70.0 °F 29.81 in Calm   1.2 mph 68 % 0.00 in
12:40 81.5 °F 69.9 °F 29.81 in NNW 0.1 mph 1.2 mph 68 % 0.00 in
12:45 81.5 °F 70.3 °F 29.81 in NNW 0.1 mph 1.2 mph 69 % 0.00 in
12:50 81.5 °F 69.5 °F 29.81 in NNW 0.2 mph 1.2 mph 67 % 0.00 in
12:55 81.5 °F 68.6 °F 29.80 in NNE 0.2 mph 1.2 mph 65 % 0.00 in
13:00 81.7 °F 70.1 °F 29.80 in Calm   1.2 mph 68 % 0.00 in
13:05 81.9 °F 69.0 °F 29.80 in NE 1.1 mph 2.3 mph 65 % 0.00 in
13:10 82.0 °F 69.5 °F 29.80 in ENE 1.7 mph 3.5 mph 66 % 0.00 in
13:15 81.9 °F 69.4 °F 29.79 in NE 1.6 mph 3.5 mph 66 % 0.00 in
13:20 81.8 °F 70.2 °F 29.79 in Calm     68 % 0.00 in
13:25 81.8 °F 69.8 °F 29.79 in NE 2.4 mph 4.0 mph 67 % 0.00 in
13:30 81.7 °F 68.8 °F 29.79 in ENE 3.2 mph 4.0 mph 65 % 0.00 in
13:35 81.6 °F 69.1 °F 29.79 in NE 0.5 mph 3.5 mph 66 % 0.00 in
13:40 81.7 °F 69.7 °F 29.79 in NE 0.4 mph 3.0 mph 67 % 0.00 in
13:50 82.1 °F 70.5 °F 29.78 in North 1.2 mph 4.0 mph 68 % 0.00 in
13:52 82.4 °F 71.2 °F 29.79 in North 0.9 mph 3.5 mph 69 % 0.00 in
13:57 82.9 °F 71.3 °F 29.79 in NE 1.8 mph 3.5 mph 68 % 0.00 in
14:02 83.5 °F 70.5 °F 29.78 in ENE 1.1 mph 2.3 mph 65 % 0.00 in
14:07 83.9 °F 70.4 °F 29.79 in NNW 1.6 mph 3.5 mph 64 % 0.00 in
14:12 84.1 °F 69.7 °F 29.78 in SE 0.5 mph 2.0 mph 62 % 0.00 in
14:17 84.4 °F 69.5 °F 29.78 in NNE 2.0 mph 4.6 mph 61 % 0.00 in
14:22 84.8 °F 70.8 °F 29.78 in NNW 0.2 mph 1.2 mph 63 % 0.00 in
14:27 85.0 °F 68.6 °F 29.78 in NE 1.3 mph 3.5 mph 58 % 0.00 in
14:32 85.2 °F 70.2 °F 29.78 in NE 2.6 mph 3.5 mph 61 % 0.00 in
14:37 85.6 °F 70.6 °F 29.78 in North 1.2 mph 2.3 mph 61 % 0.00 in
14:42 86.0 °F 71.0 °F 29.78 in ESE 0.9 mph 3.5 mph 61 % 0.00 in
14:47 86.3 °F 71.3 °F 29.78 in NNE 1.3 mph 3.5 mph 61 % 0.00 in
14:52 86.5 °F 70.5 °F 29.77 in NE 0.7 mph 3.5 mph 59 % 0.00 in
14:53 86.5 °F 70.5 °F 29.77 in NE 0.9 mph 3.5 mph 59 % 0.00 in
14:58 86.7 °F 71.2 °F 29.77 in NNE 0.4 mph 1.2 mph 60 % 0.00 in
15:03 86.7 °F 69.6 °F 29.77 in ENE 2.0 mph 3.5 mph 57 % 0.00 in
15:08 86.6 °F 70.1 °F 29.77 in NNE 2.2 mph 5.0 mph 58 % 0.00 in
15:13 86.5 °F 70.0 °F 29.77 in North 1.4 mph 3.5 mph 58 % 0.00 in
15:18 86.4 °F 70.9 °F 29.77 in ENE 0.4 mph 2.3 mph 60 % 0.00 in
15:23 85.9 °F 70.4 °F 29.77 in Calm   3.5 mph 60 % 0.00 in
15:28 85.6 °F 70.6 °F 29.77 in North 0.5 mph 2.3 mph 61 % 0.00 in
15:33 85.1 °F 69.2 °F 29.77 in ENE 0.6 mph 2.3 mph 59 % 0.00 in
15:38 85.0 °F 70.5 °F 29.77 in ENE 0.2 mph 1.2 mph 62 % 0.00 in
15:43 84.7 °F 69.8 °F 29.77 in ENE 0.1 mph 2.3 mph 61 % 0.00 in
15:48 84.5 °F 68.1 °F 29.76 in NNE 0.5 mph 2.0 mph 58 % 0.00 in
15:53 84.5 °F 70.0 °F 29.76 in NNE 0.2 mph 1.2 mph 62 % 0.00 in
15:58 84.5 °F 69.1 °F 29.76 in NE 0.6 mph 1.2 mph 60 % 0.00 in
16:03 84.5 °F 69.6 °F 29.76 in NE 0.1 mph 1.2 mph 61 % 0.00 in
16:08 84.5 °F 69.1 °F 29.76 in Calm   1.2 mph 60 % 0.00 in
16:13 84.5 °F 68.6 °F 29.76 in Calm     59 % 0.00 in
16:18 84.3 °F 68.9 °F 29.76 in Calm     60 % 0.00 in
16:24 84.0 °F 68.6 °F 29.75 in Calm     60 % 0.00 in
16:29 83.8 °F 68.9 °F 29.75 in Calm   1.2 mph 61 % 0.00 in
16:34 83.4 °F 68.5 °F 29.75 in Calm     61 % 0.00 in
16:39 83.1 °F 68.7 °F 29.75 in Calm     62 % 0.00 in
16:44 82.8 °F 68.9 °F 29.75 in Calm     63 % 0.00 in
16:49 82.6 °F 68.7 °F 29.75 in Calm     63 % 0.00 in
16:54 82.4 °F 67.6 °F 29.74 in Calm     61 % 0.00 in
16:59 82.3 °F 67.5 °F 29.74 in Calm     61 % 0.00 in
17:04 82.2 °F 67.9 °F 29.73 in Calm     62 % 0.00 in
17:06 82.2 °F 67.9 °F 29.73 in North 1.0 mph 2.3 mph 62 % 0.00 in
17:11 82.0 °F 68.2 °F 29.74 in North 0.2 mph 1.0 mph 63 % 0.00 in
17:16 82.0 °F 68.2 °F 29.74 in NE 0.6 mph 1.2 mph 63 % 0.00 in
17:21 81.9 °F 67.1 °F 29.73 in Calm     61 % 0.00 in
17:26 82.0 °F 67.7 °F 29.73 in Calm     62 % 0.00 in
17:31 82.0 °F 67.7 °F 29.74 in Calm     62 % 0.00 in
17:36 82.0 °F 68.2 °F 29.74 in Calm     63 % 0.00 in
17:42 81.9 °F 68.1 °F 29.74 in Calm     63 % 0.00 in
17:46 81.8 °F 68.0 °F 29.73 in Calm     63 % 0.00 in
17:52 81.7 °F 67.9 °F 29.73 in Calm   1.2 mph 63 % 0.00 in
17:57 81.6 °F 68.7 °F 29.73 in Calm     65 % 0.00 in
18:02 81.5 °F 68.6 °F 29.74 in Calm     65 % 0.00 in
18:07 81.4 °F 68.5 °F 29.74 in Calm     65 % 0.00 in
18:12 81.3 °F 68.9 °F 29.74 in Calm     66 % 0.00 in
18:17 81.3 °F 69.3 °F 29.74 in Calm     67 % 0.00 in
18:22 81.2 °F 68.8 °F 29.74 in Calm     66 % 0.00 in
18:27 81.1 °F 69.5 °F 29.73 in Calm     68 % 0.00 in
18:32 80.9 °F 69.8 °F 29.73 in Calm   1.2 mph 69 % 0.00 in
18:37 80.6 °F 68.6 °F 29.73 in Calm     67 % 0.00 in
18:42 80.4 °F 69.3 °F 29.73 in Calm     69 % 0.00 in
18:47 80.2 °F 68.7 °F 29.73 in Calm     68 % 0.00 in
18:52 80.0 °F 68.9 °F 29.73 in Calm     69 % 0.00 in
18:56 79.8 °F 67.9 °F 29.74 in Calm     67 % 0.00 in
19:01 79.7 °F 68.6 °F 29.74 in Calm     69 % 0.00 in
19:06 79.5 °F 68.8 °F 29.74 in Calm     70 % 0.00 in
19:11 79.2 °F 69.0 °F 29.74 in Calm     71 % 0.00 in
19:16 79.0 °F 69.2 °F 29.74 in Calm     72 % 0.00 in
19:21 78.7 °F 68.5 °F 29.74 in Calm     71 % 0.00 in
19:31 78.3 °F 67.7 °F 29.75 in Calm     70 % 0.00 in
19:36 78.2 °F 67.6 °F 29.74 in Calm   1.0 mph 70 % 0.00 in
19:41 78.1 °F 67.5 °F 29.75 in Calm     70 % 0.00 in
19:46 77.9 °F 67.8 °F 29.75 in Calm     71 % 0.00 in
19:51 77.8 °F 67.6 °F 29.76 in Calm     71 % 0.00 in
19:56 77.7 °F 67.5 °F 29.75 in Calm     71 % 0.00 in
20:01 77.5 °F 67.8 °F 29.76 in Calm     72 % 0.00 in
20:06 77.3 °F 68.0 °F 29.75 in Calm     73 % 0.00 in
20:11 77.2 °F 68.3 °F 29.75 in Calm     74 % 0.00 in
20:13 77.1 °F 68.2 °F 29.76 in Calm     74 % 0.00 in
20:18 77.0 °F 68.5 °F 29.75 in Calm     75 % 0.00 in
20:23 76.8 °F 68.7 °F 29.75 in Calm     76 % 0.00 in
20:28 76.6 °F 68.8 °F 29.75 in Calm     77 % 0.00 in
20:34 76.5 °F 69.1 °F 29.76 in Calm     78 % 0.00 in
20:39 76.3 °F 68.9 °F 29.76 in Calm     78 % 0.00 in
20:44 76.1 °F 69.1 °F 29.76 in Calm     79 % 0.00 in
20:49 76.0 °F 69.4 °F 29.76 in West 0.1 mph 1.2 mph 80 % 0.00 in
20:54 75.9 °F 69.6 °F 29.76 in Calm     81 % 0.00 in
20:59 75.7 °F 69.5 °F 29.77 in Calm     81 % 0.00 in
21:04 75.6 °F 69.4 °F 29.76 in Calm     81 % 0.00 in
21:09 75.5 °F 69.6 °F 29.77 in Calm     82 % 0.00 in
21:14 75.4 °F 69.9 °F 29.77 in Calm     83 % 0.00 in
21:19 75.3 °F 69.8 °F 29.77 in Calm     83 % 0.00 in
21:24 75.2 °F 69.7 °F 29.77 in Calm     83 % 0.00 in
21:29 75.1 °F 69.6 °F 29.76 in Calm     83 % 0.00 in
21:34 75.0 °F 69.5 °F 29.76 in Calm     83 % 0.00 in
21:39 75.0 °F 69.5 °F 29.76 in Calm     83 % 0.00 in
21:44 74.9 °F 69.4 °F 29.75 in Calm     83 % 0.00 in
21:49 74.8 °F 69.3 °F 29.75 in Calm     83 % 0.00 in
21:54 74.7 °F 69.5 °F 29.75 in Calm     84 % 0.00 in
21:59 74.6 °F 69.4 °F 29.75 in Calm     84 % 0.00 in
22:04 74.5 °F 69.7 °F 29.75 in Calm     85 % 0.00 in
22:09 74.4 °F 69.6 °F 29.75 in Calm     85 % 0.00 in
22:14 74.3 °F 69.8 °F 29.75 in Calm     86 % 0.00 in
22:19 74.2 °F 69.7 °F 29.75 in Calm     86 % 0.00 in
22:24 74.2 °F 70.1 °F 29.75 in Calm     87 % 0.00 in
22:30 74.1 °F 70.0 °F 29.76 in Calm   1.2 mph 87 % 0.00 in
22:35 74.0 °F 69.9 °F 29.76 in Calm     87 % 0.00 in
22:45 73.9 °F 70.5 °F 29.75 in Calm     89 % 0.00 in
22:50 73.8 °F 70.4 °F 29.75 in Calm     89 % 0.00 in
22:55 73.8 °F 70.4 °F 29.75 in Calm     89 % 0.00 in
23:00 73.8 °F 70.4 °F 29.75 in Calm     89 % 0.00 in
23:05 73.8 °F 70.4 °F 29.75 in Calm     89 % 0.00 in
23:10 73.7 °F 70.3 °F 29.75 in Calm     89 % 0.00 in
23:15 73.7 °F 70.3 °F 29.75 in Calm     89 % 0.00 in
23:20 73.7 °F 70.6 °F 29.75 in Calm     90 % 0.00 in
23:25 73.7 °F 70.3 °F 29.75 in Calm     89 % 0.00 in
23:30 73.7 °F 70.3 °F 29.75 in Calm     89 % 0.00 in
23:36 73.7 °F 70.3 °F 29.75 in Calm     89 % 0.00 in
23:41 73.6 °F 70.2 °F 29.75 in Calm     89 % 0.00 in
23:45 73.6 °F 70.5 °F 29.75 in Calm     90 % 0.00 in
23:50 73.5 °F 70.4 °F 29.75 in Calm     90 % 0.00 in
23:55 73.5 °F 70.4 °F 29.75 in Calm     90 % 0.00 in
23:59 73.5 °F 70.4 °F 29.75 in Calm   1.0 mph 90 % 0.00 in
Crab Meadow Weather
Compliments of Weather Underground - 3 mb

Script developed by  Jim McMurry - jmcmurry@mwt.net Adapted for the template by  Wim van der Kuil - Leuven-Template.eu

Astronomy: Space missions to Mars suggest that it once had water.